createdAt,value
2023-04-24T00:00:21.676Z,82.40
2023-04-24T00:02:51.696Z,82.40
2023-04-24T00:05:20.847Z,82.60
2023-04-24T00:07:49.265Z,81.90
2023-04-24T00:10:17.514Z,81.90
2023-04-24T00:12:45.798Z,81.70
2023-04-24T00:15:14.292Z,81.30
2023-04-24T00:17:42.660Z,81.30
2023-04-24T00:20:14.313Z,81.30
2023-04-24T00:22:42.700Z,81.10
2023-04-24T00:25:11.563Z,81.50
2023-04-24T00:27:39.831Z,81.40
2023-04-24T00:30:09.981Z,81.50
2023-04-24T00:32:38.390Z,81.70
2023-04-24T00:35:08.567Z,81.50
2023-04-24T00:37:38.255Z,81.20
2023-04-24T00:40:08.508Z,81.30
2023-04-24T00:42:37.132Z,81.40
2023-04-24T00:45:06.886Z,81.10
2023-04-24T00:47:35.747Z,81.20
2023-04-24T00:50:05.111Z,81.30
2023-04-24T00:52:34.097Z,81.40
2023-04-24T00:55:03.890Z,81.20
2023-04-24T00:57:32.725Z,81.40
2023-04-24T01:00:01.241Z,81.40
2023-04-24T01:02:30.690Z,81.20
2023-04-24T01:04:59.536Z,81.00
2023-04-24T01:07:28.126Z,81.20
2023-04-24T01:09:56.761Z,81.30
2023-04-24T01:12:26.386Z,81.30
2023-04-24T01:14:54.785Z,81.20
2023-04-24T01:17:23.111Z,81.30
2023-04-24T01:19:54.797Z,81.40
2023-04-24T01:22:24.718Z,81.30
2023-04-24T01:24:54.019Z,81.30
2023-04-24T01:27:22.657Z,81.40
2023-04-24T01:29:52.939Z,81.50
2023-04-24T01:32:22.093Z,81.50
2023-04-24T01:34:51.594Z,81.40
2023-04-24T01:37:19.815Z,81.60
2023-04-24T01:39:49.494Z,81.90
2023-04-24T01:42:18.449Z,82.00
2023-04-24T01:44:47.386Z,81.70
2023-04-24T01:47:16.185Z,82.00
2023-04-24T01:49:44.797Z,81.90
2023-04-24T01:52:13.410Z,82.10
2023-04-24T01:54:41.812Z,82.10
2023-04-24T01:57:11.761Z,82.20
2023-04-24T01:59:40.797Z,82.30
2023-04-24T02:02:09.279Z,82.00
2023-04-24T02:04:39.283Z,82.20
2023-04-24T02:07:07.503Z,82.10
2023-04-24T02:09:35.810Z,82.00
2023-04-24T02:12:04.198Z,82.20
2023-04-24T02:14:33.874Z,82.10
2023-04-24T02:17:02.196Z,82.20
2023-04-24T02:19:30.536Z,82.00
2023-04-24T02:21:58.761Z,82.20
2023-04-24T02:24:27.167Z,82.10
2023-04-24T02:26:55.764Z,82.20
2023-04-24T02:29:24.108Z,82.10
2023-04-24T02:31:53.760Z,82.50
2023-04-24T02:34:22.051Z,82.10
2023-04-24T02:36:50.286Z,82.10
2023-04-24T02:39:19.743Z,82.20
2023-04-24T02:41:48.402Z,82.30
2023-04-24T02:44:18.269Z,82.20
2023-04-24T02:46:46.524Z,82.20
2023-04-24T02:49:16.408Z,82.40
2023-04-24T02:51:44.732Z,82.40
2023-04-24T02:54:12.999Z,82.40
2023-04-24T02:56:41.563Z,82.40
2023-04-24T02:59:09.918Z,82.60
2023-04-24T03:01:38.271Z,82.50
2023-04-24T03:04:06.883Z,82.50
2023-04-24T03:06:37.192Z,82.30
2023-04-24T03:09:06.271Z,82.30
2023-04-24T03:11:34.506Z,82.20
2023-04-24T03:14:02.846Z,82.20
2023-04-24T03:16:31.213Z,82.10
2023-04-24T03:18:59.505Z,82.40
2023-04-24T03:21:28.405Z,82.20
2023-04-24T04:28:48.691Z,82.20
2023-04-24T04:31:16.924Z,81.50
2023-04-24T04:33:45.208Z,81.70
2023-04-24T04:36:13.343Z,81.80
2023-04-24T04:38:42.956Z,81.80
2023-04-24T04:41:11.709Z,81.90
2023-04-24T04:43:40.705Z,82.30
2023-04-24T04:46:11.710Z,82.80
2023-04-24T04:48:40.597Z,83.10
2023-04-24T04:51:08.756Z,83.30
2023-04-24T04:53:37.128Z,83.40
2023-04-24T04:56:05.897Z,83.40
2023-04-24T04:58:34.091Z,83.60
2023-04-24T05:01:02.354Z,83.70
2023-04-24T05:03:32.055Z,83.70
2023-04-24T05:06:01.003Z,83.90
2023-04-24T05:08:29.237Z,83.90
2023-04-24T05:10:57.768Z,84.10
2023-04-24T05:13:38.344Z,84.40
2023-04-24T05:16:07.917Z,84.80
2023-04-24T05:18:37.638Z,85.00
2023-04-24T05:21:06.169Z,85.50
2023-04-24T05:23:34.395Z,86.00
2023-04-24T05:26:02.702Z,86.10
2023-04-24T05:28:31.151Z,86.50
2023-04-24T05:31:00.427Z,86.40
2023-04-24T05:33:28.854Z,86.50
2023-04-24T05:35:58.698Z,86.90
2023-04-24T05:38:26.930Z,86.70
2023-04-24T05:40:55.226Z,87.00
2023-04-24T05:43:23.511Z,87.10
2023-04-24T05:45:52.027Z,87.10
2023-04-24T05:48:20.179Z,87.60
2023-04-24T05:50:49.009Z,87.60
2023-04-24T05:53:18.756Z,87.80
2023-04-24T05:55:47.434Z,88.10
2023-04-24T05:58:15.632Z,88.30
2023-04-24T06:00:44.389Z,88.30
2023-04-24T06:03:12.892Z,88.50
2023-04-24T06:05:41.261Z,88.60
2023-04-24T06:08:09.542Z,88.50
2023-04-24T06:10:39.133Z,88.80
2023-04-24T06:13:07.752Z,88.80
2023-04-24T06:15:36.266Z,88.80
2023-04-24T06:18:04.957Z,88.90
2023-04-24T06:20:33.219Z,88.90
2023-04-24T06:23:01.594Z,88.90
2023-04-24T06:25:30.249Z,89.10
2023-04-24T06:28:00.006Z,89.20
2023-04-24T06:30:29.164Z,88.90
2023-04-24T06:33:09.233Z,88.90
2023-04-24T06:35:47.197Z,88.80
2023-04-24T06:38:17.013Z,88.70
2023-04-24T06:40:45.497Z,89.00
2023-04-24T06:43:15.976Z,89.10
2023-04-24T06:45:45.200Z,89.30
2023-04-24T06:48:13.641Z,89.20
2023-04-24T06:50:41.810Z,89.40
2023-04-24T06:53:12.138Z,89.60
2023-04-24T06:55:40.427Z,89.70
2023-04-24T06:58:09.041Z,89.90
2023-04-24T07:00:38.707Z,89.80
2023-04-24T07:03:07.412Z,89.80
2023-04-24T07:05:36.128Z,90.10
2023-04-24T07:08:05.231Z,90.20
2023-04-24T07:10:36.977Z,90.30
2023-04-24T07:13:05.246Z,90.50
2023-04-24T07:15:33.666Z,90.50
2023-04-24T07:18:05.772Z,90.60
2023-04-24T07:20:35.059Z,90.90
2023-04-24T07:23:03.360Z,91.20
2023-04-24T07:25:32.396Z,91.30
2023-04-24T07:28:01.063Z,91.60
2023-04-24T07:30:29.887Z,91.80
2023-04-24T07:32:58.314Z,92.00
2023-04-24T07:35:28.645Z,92.20
2023-04-24T07:37:56.895Z,92.50
2023-04-24T07:40:25.298Z,92.70
2023-04-24T07:42:53.522Z,92.80
2023-04-24T07:45:21.730Z,93.00
2023-04-24T07:47:50.061Z,93.10
2023-04-24T07:50:18.419Z,93.20
2023-04-24T07:52:48.602Z,93.40
2023-04-24T07:55:17.130Z,93.50
2023-04-24T07:57:45.436Z,93.50
2023-04-24T08:00:15.126Z,93.60
2023-04-24T08:02:43.579Z,93.70
2023-04-24T08:05:12.112Z,93.70
2023-04-24T08:07:40.853Z,93.70
2023-04-24T08:10:12.919Z,93.70
2023-04-24T08:12:41.322Z,93.70
2023-04-24T08:15:10.975Z,93.70
2023-04-24T08:17:39.365Z,93.70
2023-04-24T08:20:14.244Z,93.50
2023-04-24T08:22:42.696Z,93.60
2023-04-24T08:25:13.110Z,93.60
2023-04-24T08:27:41.463Z,93.60
2023-04-24T08:30:10.749Z,93.80
2023-04-24T08:32:39.485Z,93.90
2023-04-24T08:35:10.178Z,93.90
2023-04-24T08:37:38.934Z,94.00
2023-04-24T08:40:16.977Z,94.10
2023-04-24T08:42:46.808Z,94.10
2023-04-24T08:45:15.894Z,94.20
2023-04-24T08:47:45.468Z,94.10
2023-04-24T08:50:14.191Z,94.00
2023-04-24T08:52:44.335Z,94.10
2023-04-24T08:55:12.982Z,94.00
2023-04-24T08:57:44.890Z,94.10
2023-04-24T09:00:14.988Z,94.20
2023-04-24T09:02:45.694Z,94.20
2023-04-24T09:05:16.003Z,94.30
2023-04-24T09:07:47.093Z,94.30
2023-04-24T09:10:15.377Z,94.40
2023-04-24T09:12:47.260Z,94.40
2023-04-24T09:15:16.291Z,94.40
2023-04-24T09:17:45.587Z,94.40
2023-04-24T09:20:13.916Z,94.40
2023-04-24T09:22:42.216Z,94.50
2023-04-24T09:25:13.702Z,94.50
2023-04-24T09:27:47.331Z,94.60
2023-04-24T09:30:16.283Z,94.60
2023-04-24T09:32:44.635Z,94.60
2023-04-24T09:35:15.749Z,94.70
2023-04-24T09:37:44.773Z,94.70
2023-04-24T09:40:18.570Z,94.60
2023-04-24T09:42:53.420Z,94.60
2023-04-24T09:45:22.198Z,94.60
2023-04-24T09:47:55.244Z,94.60
2023-04-24T09:50:23.970Z,94.60
2023-04-24T09:53:00.438Z,94.60
2023-04-24T09:55:29.039Z,94.50
2023-04-24T09:58:01.217Z,94.40
2023-04-24T10:00:31.343Z,94.20
2023-04-24T10:03:02.212Z,94.20
2023-04-24T10:05:32.248Z,94.20
2023-04-24T10:08:05.724Z,94.00
2023-04-24T10:10:35.829Z,93.90
2023-04-24T10:13:06.342Z,93.90
2023-04-24T10:15:34.829Z,94.00
2023-04-24T10:18:04.308Z,94.00
2023-04-24T10:20:32.760Z,93.90
2023-04-24T10:23:02.656Z,94.00
2023-04-24T10:25:33.637Z,94.00
2023-04-24T10:28:05.428Z,93.90
2023-04-24T10:30:36.999Z,94.00
2023-04-24T10:33:06.621Z,94.00
2023-04-24T10:35:38.355Z,93.80
2023-04-24T10:38:11.492Z,93.20
2023-04-24T10:40:39.871Z,93.20
2023-04-24T10:43:12.431Z,93.30
2023-04-24T10:45:41.495Z,93.20
2023-04-24T10:48:14.786Z,92.70
2023-04-24T10:50:48.014Z,92.90
2023-04-24T10:53:19.462Z,92.30
2023-04-24T10:55:50.160Z,92.70
2023-04-24T10:58:24.477Z,93.00
2023-04-24T11:01:00.293Z,93.30
2023-04-24T11:03:30.889Z,93.40
2023-04-24T11:06:02.915Z,93.00
2023-04-24T11:08:34.743Z,92.70
2023-04-24T11:11:06.464Z,92.70
2023-04-24T11:14:12.105Z,91.30
2023-04-24T11:16:49.992Z,91.00
2023-04-24T11:19:26.130Z,90.70
2023-04-24T11:22:02.459Z,91.00
2023-04-24T11:24:33.883Z,90.90
2023-04-24T11:27:08.248Z,90.10
2023-04-24T11:29:49.479Z,89.50
2023-04-24T11:32:31.424Z,90.00
2023-04-24T11:35:02.182Z,88.60
2023-04-24T11:37:32.314Z,89.40
2023-04-24T11:40:02.188Z,88.50
2023-04-24T11:42:31.594Z,89.80
2023-04-24T11:45:03.034Z,89.70
2023-04-24T11:47:34.632Z,88.80
2023-04-24T11:50:04.679Z,88.30
2023-04-24T11:52:33.824Z,88.30
2023-04-24T11:55:02.539Z,88.60
2023-04-24T11:57:34.715Z,89.00
2023-04-24T12:00:07.035Z,88.50
2023-04-24T12:02:36.980Z,87.40
2023-04-24T12:05:08.953Z,85.70
2023-04-24T12:07:44.777Z,85.90
2023-04-24T12:10:13.382Z,85.80
2023-04-24T12:12:41.692Z,85.90
2023-04-24T12:15:13.499Z,85.10
2023-04-24T12:17:44.728Z,85.70
2023-04-24T12:20:14.654Z,85.40
2023-04-24T12:22:48.012Z,84.10
2023-04-24T12:25:17.668Z,84.10
2023-04-24T12:27:46.537Z,85.20
2023-04-24T12:30:18.604Z,84.10
2023-04-24T12:32:50.700Z,85.00
2023-04-24T12:35:23.375Z,84.00
2023-04-24T12:37:52.189Z,85.70
2023-04-24T12:40:22.538Z,83.50
2023-04-24T12:42:52.708Z,83.40
2023-04-24T12:45:24.387Z,84.00
2023-04-24T12:47:52.741Z,83.70
2023-04-24T12:50:21.112Z,83.60
2023-04-24T12:52:49.674Z,83.10
2023-04-24T12:55:17.892Z,82.30
2023-04-24T12:57:46.126Z,81.80
2023-04-24T13:00:16.432Z,81.60
2023-04-24T13:02:47.837Z,81.20
2023-04-24T13:05:16.607Z,80.90
2023-04-24T13:07:44.935Z,81.50
2023-04-24T13:10:14.294Z,79.80
2023-04-24T13:12:46.252Z,80.70
2023-04-24T13:15:14.990Z,82.20
2023-04-24T13:17:43.277Z,80.20
2023-04-24T13:20:13.149Z,81.80
2023-04-24T13:22:41.446Z,80.30
2023-04-24T13:25:11.193Z,80.10
2023-04-24T13:27:40.911Z,79.40
2023-04-24T13:30:10.769Z,79.50
2023-04-24T13:32:39.073Z,81.00
2023-04-24T13:35:08.073Z,80.00
2023-04-24T13:37:37.836Z,78.70
2023-04-24T13:40:08.129Z,77.90
2023-04-24T13:42:36.548Z,76.50
2023-04-24T13:45:21.140Z,78.60
2023-04-24T13:47:53.444Z,77.40
2023-04-24T13:50:21.991Z,79.30
2023-04-24T13:52:51.582Z,78.10
2023-04-24T13:55:19.851Z,80.20
2023-04-24T13:57:48.167Z,78.70
2023-04-24T14:00:17.680Z,76.60
2023-04-24T14:02:46.100Z,75.90
2023-04-24T14:05:16.227Z,77.50
2023-04-24T14:07:44.448Z,78.40
2023-04-24T14:10:14.209Z,79.60
2023-04-24T14:12:42.535Z,78.60
2023-04-24T14:15:12.170Z,80.40
2023-04-24T14:17:40.424Z,79.90
2023-04-24T14:20:10.292Z,80.30
2023-04-24T14:22:38.610Z,80.10
2023-04-24T14:25:08.654Z,77.70
2023-04-24T14:27:38.308Z,78.40
2023-04-24T14:30:08.713Z,76.00
2023-04-24T14:32:37.119Z,77.40
2023-04-24T14:35:06.649Z,76.90
2023-04-24T14:37:34.955Z,76.40
2023-04-24T14:40:15.858Z,76.50
2023-04-24T14:42:53.576Z,77.40
2023-04-24T14:45:21.793Z,76.80
2023-04-24T14:47:50.135Z,76.80
2023-04-24T14:50:18.616Z,78.10
2023-04-24T14:52:47.568Z,77.20
2023-04-24T14:55:17.302Z,76.80
2023-04-24T14:57:45.507Z,79.00
2023-04-24T15:00:17.935Z,76.80
2023-04-24T15:02:46.359Z,76.90
2023-04-24T15:05:15.043Z,77.60
2023-04-24T15:07:43.578Z,77.70
2023-04-24T15:10:12.984Z,78.60
2023-04-24T15:12:41.313Z,79.50
2023-04-24T15:15:11.616Z,79.30
2023-04-24T15:17:41.319Z,79.50
2023-04-24T15:20:11.054Z,79.90
2023-04-24T15:22:39.338Z,78.60
2023-04-24T15:25:09.409Z,79.70
2023-04-24T15:27:45.001Z,79.00
2023-04-24T15:30:14.829Z,77.90
2023-04-24T15:32:44.493Z,79.30
2023-04-24T15:35:12.794Z,77.50
2023-04-24T15:37:41.255Z,76.40
2023-04-24T15:40:12.300Z,77.00
2023-04-24T15:42:41.014Z,76.00
2023-04-24T15:45:11.055Z,75.70
2023-04-24T15:47:39.725Z,75.90
2023-04-24T15:50:14.150Z,77.40
2023-04-24T15:52:43.061Z,76.90
2023-04-24T15:55:12.266Z,77.50
2023-04-24T15:57:40.853Z,77.40
2023-04-24T16:00:10.973Z,76.70
2023-04-24T16:02:39.480Z,74.90
2023-04-24T16:05:10.036Z,75.40
2023-04-24T16:07:41.216Z,74.50
2023-04-24T16:10:11.944Z,73.80
2023-04-24T16:12:40.878Z,72.50
2023-04-24T16:15:09.944Z,72.70
2023-04-24T16:17:38.247Z,73.80
2023-04-24T16:20:09.757Z,74.60
2023-04-24T16:22:40.248Z,74.70
2023-04-24T16:25:10.575Z,73.60
2023-04-24T16:27:39.273Z,74.70
2023-04-24T16:30:09.473Z,74.00
2023-04-24T16:32:37.743Z,72.90
2023-04-24T16:35:07.031Z,73.00
2023-04-24T16:37:36.797Z,74.70
2023-04-24T16:40:10.559Z,72.40
2023-04-24T16:42:39.271Z,73.10
2023-04-24T16:45:09.522Z,74.00
2023-04-24T16:47:37.859Z,75.60
2023-04-24T16:50:07.614Z,75.10
2023-04-24T16:52:37.200Z,76.00
2023-04-24T16:55:06.332Z,77.00
2023-04-24T16:57:34.826Z,77.40
2023-04-24T17:00:04.056Z,77.30
2023-04-24T17:02:32.716Z,77.80
2023-04-24T17:05:02.289Z,77.50
2023-04-24T17:07:31.839Z,78.10
2023-04-24T17:10:01.487Z,78.70
2023-04-24T17:12:29.836Z,78.70
2023-04-24T17:14:58.068Z,79.30
2023-04-24T17:17:26.326Z,79.70
2023-04-24T17:19:54.636Z,79.70
2023-04-24T17:22:22.856Z,79.40
2023-04-24T17:24:51.356Z,79.60
2023-04-24T17:27:21.101Z,78.60
2023-04-24T17:29:49.910Z,78.00
2023-04-24T17:32:18.287Z,78.00
2023-04-24T17:34:47.760Z,78.40
2023-04-24T17:37:16.269Z,78.40
2023-04-24T17:39:44.520Z,79.00
2023-04-24T17:42:12.938Z,77.60
2023-04-24T17:44:42.539Z,77.30
2023-04-24T17:47:10.871Z,77.00
2023-04-24T17:49:39.593Z,77.60
2023-04-24T17:52:08.286Z,76.80
2023-04-24T17:54:36.775Z,76.30
2023-04-24T17:57:05.098Z,77.40
2023-04-24T17:59:33.353Z,77.30
2023-04-24T18:02:03.022Z,76.30
2023-04-24T18:04:31.513Z,76.90
2023-04-24T18:07:00.067Z,77.50
2023-04-24T18:09:28.320Z,77.00
2023-04-24T18:11:57.731Z,77.00
2023-04-24T18:14:28.379Z,76.40
2023-04-24T18:16:58.224Z,76.50
2023-04-24T18:19:27.902Z,76.50
2023-04-24T18:21:56.199Z,76.80
2023-04-24T18:24:24.720Z,76.10
2023-04-24T18:26:52.967Z,75.20
2023-04-24T18:29:21.248Z,75.70
2023-04-24T18:31:50.265Z,75.70
2023-04-24T18:34:18.737Z,75.90
2023-04-24T18:36:48.336Z,76.60
2023-04-24T18:39:16.589Z,76.40
2023-04-24T18:41:44.854Z,75.90
2023-04-24T18:44:13.115Z,75.90
2023-04-24T18:46:41.646Z,76.60
2023-04-24T18:49:10.038Z,77.40
2023-04-24T18:51:52.473Z,76.90
2023-04-24T18:54:23.275Z,76.70
2023-04-24T18:56:51.569Z,77.50
2023-04-24T18:59:19.865Z,77.10
2023-04-24T19:01:48.777Z,77.40
2023-04-24T19:04:18.117Z,77.80
2023-04-24T19:06:46.390Z,78.40
2023-04-24T19:09:14.643Z,78.60
2023-04-24T19:11:44.920Z,78.90
2023-04-24T19:14:13.597Z,79.10
2023-04-24T19:16:41.960Z,79.60
2023-04-24T19:19:10.319Z,79.70
2023-04-24T19:21:38.995Z,79.60
2023-04-24T19:24:09.566Z,79.40
2023-04-24T19:26:37.943Z,79.90
2023-04-24T19:29:07.684Z,79.50
2023-04-24T19:31:35.991Z,79.60
2023-04-24T19:34:04.257Z,79.60
2023-04-24T19:36:33.997Z,79.70
2023-04-24T19:39:02.617Z,79.00
2023-04-24T19:41:30.963Z,78.80
2023-04-24T19:43:59.216Z,79.00
2023-04-24T19:46:28.876Z,79.50
2023-04-24T19:48:57.160Z,79.90
2023-04-24T19:51:25.874Z,80.30
2023-04-24T19:53:54.651Z,80.30
2023-04-24T19:56:23.132Z,79.60
2023-04-24T19:58:51.437Z,79.60
2023-04-24T20:01:19.998Z,79.20
2023-04-24T20:03:49.785Z,79.70
2023-04-24T20:06:18.104Z,79.90
2023-04-24T20:08:46.483Z,80.20
2023-04-24T20:11:15.882Z,80.40
2023-04-24T20:13:44.171Z,80.30
2023-04-24T20:16:12.550Z,80.30
2023-04-24T20:18:40.937Z,80.00
2023-04-24T20:21:10.832Z,80.20
2023-04-24T20:23:39.365Z,80.40
2023-04-24T20:26:08.396Z,80.20
2023-04-24T20:28:36.811Z,80.20
2023-04-24T20:31:05.231Z,80.30
2023-04-24T20:33:33.531Z,79.90
2023-04-24T20:36:01.749Z,80.20
2023-04-24T20:38:31.413Z,79.60
2023-04-24T20:41:00.215Z,79.60
2023-04-24T20:43:29.333Z,79.40
2023-04-24T20:45:59.228Z,79.80
2023-04-24T20:48:27.656Z,79.80
2023-04-24T20:50:56.008Z,79.80
2023-04-24T20:53:25.028Z,80.10
2023-04-24T20:55:54.800Z,79.70
2023-04-24T20:58:23.883Z,79.50
2023-04-24T21:00:52.949Z,79.60
2023-04-24T21:03:21.720Z,79.90
2023-04-24T21:05:50.150Z,80.40
2023-04-24T21:08:18.678Z,80.40
2023-04-24T21:10:46.980Z,80.70
2023-04-24T21:13:16.680Z,80.60
2023-04-24T21:15:44.962Z,80.90
2023-04-24T21:18:13.224Z,80.80
2023-04-24T21:20:41.463Z,80.90
2023-04-24T21:23:09.795Z,81.00
2023-04-24T21:25:38.753Z,80.90
2023-04-24T21:28:07.076Z,81.40
2023-04-24T21:30:36.721Z,81.30
2023-04-24T21:33:05.097Z,81.20
2023-04-24T21:35:33.846Z,81.20
2023-04-24T21:38:02.040Z,81.60
2023-04-24T21:40:30.490Z,81.60
2023-04-24T21:42:58.745Z,81.80
2023-04-24T21:45:27.201Z,82.10
2023-04-24T21:47:58.673Z,82.10
2023-04-24T21:50:26.935Z,81.80
2023-04-24T21:52:55.156Z,81.90
2023-04-24T21:55:23.419Z,81.90
2023-04-24T21:57:52.094Z,81.90
2023-04-24T22:00:21.383Z,82.00
2023-04-24T22:02:50.274Z,82.20
2023-04-24T22:05:20.337Z,82.10
2023-04-24T22:07:50.536Z,82.30
2023-04-24T22:10:19.317Z,82.50
2023-04-24T22:12:48.186Z,82.40
2023-04-24T22:15:16.380Z,82.50
2023-04-24T22:17:44.673Z,82.50
2023-04-24T22:20:14.039Z,82.50
2023-04-24T22:22:43.863Z,82.40
2023-04-24T22:25:12.392Z,82.80
2023-04-24T22:27:40.631Z,82.80
2023-04-24T22:30:10.522Z,82.80
2023-04-24T22:32:39.186Z,82.80
2023-04-24T22:35:10.048Z,82.90
2023-04-24T22:37:38.214Z,83.20
2023-04-24T22:40:10.357Z,83.20
2023-04-24T22:42:38.746Z,83.50
2023-04-24T22:45:11.289Z,83.30
2023-04-24T22:47:39.755Z,83.30
2023-04-24T22:50:10.698Z,83.20
2023-04-24T22:52:41.010Z,83.20
2023-04-24T22:55:12.036Z,83.20
2023-04-24T22:57:40.400Z,83.10
2023-04-24T23:00:12.664Z,83.20
2023-04-24T23:02:42.313Z,83.20
2023-04-24T23:05:12.058Z,83.20
2023-04-24T23:07:40.292Z,83.60
2023-04-24T23:10:11.149Z,83.50
2023-04-24T23:12:39.775Z,83.60
2023-04-24T23:15:10.756Z,83.60
2023-04-24T23:17:39.226Z,83.40
2023-04-24T23:20:09.290Z,83.60
2023-04-24T23:22:37.559Z,83.70
2023-04-24T23:25:08.433Z,83.60
2023-04-24T23:27:38.778Z,83.70
2023-04-24T23:30:08.984Z,83.80
2023-04-24T23:32:37.204Z,83.80
2023-04-24T23:35:06.485Z,83.70
2023-04-24T23:37:35.650Z,84.10
2023-04-24T23:40:06.096Z,84.00
2023-04-24T23:42:34.390Z,83.90
2023-04-24T23:45:04.353Z,84.10
2023-04-24T23:47:32.746Z,84.30
2023-04-24T23:50:01.183Z,84.10
2023-04-24T23:52:29.525Z,84.10
2023-04-24T23:54:57.735Z,83.80
2023-04-24T23:57:26.040Z,83.70
2023-04-24T23:59:54.205Z,83.90
